sensor_id;sensor_type;location;lat;lon;timestamp;pressure;altitude;pressure_sealevel;temperature;humidity
17525;BME280;40431;52.198;9.902;2023-01-24T00:01:13;103030.94;;;1.10;100.00
17525;BME280;40431;52.198;9.902;2023-01-24T00:03:39;103026.56;;;1.14;100.00
17525;BME280;40431;52.198;9.902;2023-01-24T00:06:06;103023.91;;;1.15;100.00
17525;BME280;40431;52.198;9.902;2023-01-24T00:08:32;103026.69;;;1.20;100.00
17525;BME280;40431;52.198;9.902;2023-01-24T00:11:00;103023.22;;;1.26;100.00
17525;BME280;40431;52.198;9.902;2023-01-24T00:13:26;103024.16;;;1.28;100.00
17525;BME280;40431;52.198;9.902;2023-01-24T00:16:05;103032.16;;;1.28;100.00
17525;BME280;40431;52.198;9.902;2023-01-24T00:18:32;103031.22;;;1.26;100.00
17525;BME280;40431;52.198;9.902;2023-01-24T00:21:06;103034.75;;;1.25;100.00
17525;BME280;40431;52.198;9.902;2023-01-24T00:23:35;103030.38;;;1.28;100.00
17525;BME280;40431;52.198;9.902;2023-01-24T00:26:01;103017.88;;;1.27;100.00
17525;BME280;40431;52.198;9.902;2023-01-24T00:28:27;103023.34;;;1.33;100.00
17525;BME280;40431;52.198;9.902;2023-01-24T00:30:55;103017.97;;;1.32;100.00
17525;BME280;40431;52.198;9.902;2023-01-24T00:33:23;103022.47;;;1.33;100.00
17525;BME280;40431;52.198;9.902;2023-01-24T00:35:49;103018.06;;;1.38;100.00
17525;BME280;40431;52.198;9.902;2023-01-24T00:38:16;103018.97;;;1.37;100.00
17525;BME280;40431;52.198;9.902;2023-01-24T00:40:43;103007.22;;;1.29;100.00
17525;BME280;40431;52.198;9.902;2023-01-24T00:43:10;103020.53;;;1.26;100.00
17525;BME280;40431;52.198;9.902;2023-01-24T00:45:37;103018.69;;;1.22;100.00
17525;BME280;40431;52.198;9.902;2023-01-24T00:48:06;103014.22;;;1.22;100.00
17525;BME280;40431;52.198;9.902;2023-01-24T00:50:35;103010.69;;;1.23;100.00
17525;BME280;40431;52.198;9.902;2023-01-24T00:53:02;103015.22;;;1.29;100.00
17525;BME280;40431;52.198;9.902;2023-01-24T00:55:29;103009.84;;;1.26;100.00
17525;BME280;40431;52.198;9.902;2023-01-24T00:57:55;103012.50;;;1.24;100.00
17525;BME280;40431;52.198;9.902;2023-01-24T01:00:22;103017.00;;;1.27;100.00
17525;BME280;40431;52.198;9.902;2023-01-24T01:02:50;103016.16;;;1.29;100.00
17525;BME280;40431;52.198;9.902;2023-01-24T01:05:17;103017.88;;;1.26;100.00
17525;BME280;40431;52.198;9.902;2023-01-24T01:07:45;103015.16;;;1.23;100.00
17525;BME280;40431;52.198;9.902;2023-01-24T01:10:12;103015.19;;;1.26;100.00
17525;BME280;40431;52.198;9.902;2023-01-24T01:12:39;103016.97;;;1.24;100.00
17525;BME280;40431;52.198;9.902;2023-01-24T01:15:06;103021.41;;;1.25;100.00
17525;BME280;40431;52.198;9.902;2023-01-24T01:17:32;103025.03;;;1.28;100.00
17525;BME280;40431;52.198;9.902;2023-01-24T01:19:59;103019.78;;;1.33;100.00
17525;BME280;40431;52.198;9.902;2023-01-24T01:22:25;103018.81;;;1.28;100.00
17525;BME280;40431;52.198;9.902;2023-01-24T01:24:53;103012.53;;;1.27;100.00
17525;BME280;40431;52.198;9.902;2023-01-24T01:27:20;103023.16;;;1.21;100.00
17525;BME280;40431;52.198;9.902;2023-01-24T01:29:46;103020.34;;;1.13;100.00
17525;BME280;40431;52.198;9.902;2023-01-24T01:32:13;103015.88;;;1.14;100.00
17525;BME280;40431;52.198;9.902;2023-01-24T01:34:40;103021.34;;;1.20;100.00
17525;BME280;40431;52.198;9.902;2023-01-24T01:37:06;103020.41;;;1.20;100.00
17525;BME280;40431;52.198;9.902;2023-01-24T01:39:32;103022.22;;;1.21;100.00
17525;BME280;40431;52.198;9.902;2023-01-24T01:42:00;103022.19;;;1.17;100.00
17525;BME280;40431;52.198;9.902;2023-01-24T01:44:28;103028.41;;;1.18;100.00
17525;BME280;40431;52.198;9.902;2023-01-24T01:47:16;103022.19;;;1.17;100.00
17525;BME280;40431;52.198;9.902;2023-01-24T01:49:46;103025.81;;;1.21;100.00
17525;BME280;40431;52.198;9.902;2023-01-24T01:52:16;103014.16;;;1.16;100.00
17525;BME280;40431;52.198;9.902;2023-01-24T01:54:44;103024.03;;;1.22;100.00
17525;BME280;40431;52.198;9.902;2023-01-24T01:57:17;103027.66;;;1.24;100.00
17525;BME280;40431;52.198;9.902;2023-01-24T01:59:48;103036.56;;;1.26;100.00
17525;BME280;40431;52.198;9.902;2023-01-24T02:02:18;103024.06;;;1.23;100.00
17525;BME280;40431;52.198;9.902;2023-01-24T02:04:47;103023.16;;;1.21;100.00
17525;BME280;40431;52.198;9.902;2023-01-24T02:07:19;103018.56;;;1.15;100.00
17525;BME280;40431;52.198;9.902;2023-01-24T02:09:50;103022.22;;;1.21;100.00
17525;BME280;40431;52.198;9.902;2023-01-24T02:12:20;103028.53;;;1.24;100.00
17525;BME280;40431;52.198;9.902;2023-01-24T02:14:51;103021.38;;;1.23;100.00
17525;BME280;40431;52.198;9.902;2023-01-24T02:17:37;103026.88;;;1.31;100.00
17525;BME280;40431;52.198;9.902;2023-01-24T02:22:59;103017.81;;;1.23;100.00
17525;BME280;40431;52.198;9.902;2023-01-24T02:25:31;103025.88;;;1.26;100.00
17525;BME280;40431;52.198;9.902;2023-01-24T02:28:01;103016.00;;;1.20;100.00
17525;BME280;40431;52.198;9.902;2023-01-24T02:30:28;103020.34;;;1.15;100.00
17525;BME280;40431;52.198;9.902;2023-01-24T02:32:55;103012.25;;;1.10;100.00
17525;BME280;40431;52.198;9.902;2023-01-24T02:35:25;103025.56;;;1.09;100.00
17525;BME280;40431;52.198;9.902;2023-01-24T02:37:51;103013.91;;;1.04;100.00
17525;BME280;40431;52.198;9.902;2023-01-24T02:40:19;103020.16;;;1.04;100.00
17525;BME280;40431;52.198;9.902;2023-01-24T02:42:46;103015.72;;;1.05;100.00
17525;BME280;40431;52.198;9.902;2023-01-24T02:45:18;103023.81;;;1.09;100.00
17525;BME280;40431;52.198;9.902;2023-01-24T02:47:48;103009.53;;;1.07;100.00
17525;BME280;40431;52.198;9.902;2023-01-24T02:50:15;103018.53;;;1.12;100.00
17525;BME280;40431;52.198;9.902;2023-01-24T02:52:41;103020.38;;;1.16;100.00
17525;BME280;40431;52.198;9.902;2023-01-24T02:55:25;103023.09;;;1.20;100.00
17525;BME280;40431;52.198;9.902;2023-01-24T02:57:51;103020.41;;;1.20;100.00
17525;BME280;40431;52.198;9.902;2023-01-24T03:00:34;103024.03;;;1.22;100.00
17525;BME280;40431;52.198;9.902;2023-01-24T03:03:01;103011.53;;;1.21;100.00
17525;BME280;40431;52.198;9.902;2023-01-24T03:05:28;103016.00;;;1.20;100.00
17525;BME280;40431;52.198;9.902;2023-01-24T03:08:05;103010.56;;;1.15;100.00
17525;BME280;40431;52.198;9.902;2023-01-24T03:10:32;103002.47;;;1.11;100.00
17525;BME280;40431;52.198;9.902;2023-01-24T03:12:58;102990.00;;;1.11;100.00
17525;BME280;40431;52.198;9.902;2023-01-24T03:15:44;102991.81;;;1.12;100.00
17525;BME280;40431;52.198;9.902;2023-01-24T03:18:28;102991.81;;;1.12;100.00
17525;BME280;40431;52.198;9.902;2023-01-24T03:21:11;103000.69;;;1.11;100.00
17525;BME280;40431;52.198;9.902;2023-01-24T03:23:56;103000.66;;;1.10;100.00
17525;BME280;40431;52.198;9.902;2023-01-24T03:26:39;102992.66;;;1.11;100.00
17525;BME280;40431;52.198;9.902;2023-01-24T03:29:23;103000.69;;;1.11;100.00
17525;BME280;40431;52.198;9.902;2023-01-24T03:32:09;102979.31;;;1.11;100.00
17525;BME280;40431;52.198;9.902;2023-01-24T03:34:53;102990.91;;;1.12;100.00
17525;BME280;40431;52.198;9.902;2023-01-24T03:37:21;102983.75;;;1.11;100.00
17525;BME280;40431;52.198;9.902;2023-01-24T03:40:04;102997.19;;;1.15;100.00
17525;BME280;40431;52.198;9.902;2023-01-24T03:42:31;102995.47;;;1.17;100.00
17525;BME280;40431;52.198;9.902;2023-01-24T03:44:58;102991.81;;;1.12;100.00
17525;BME280;40431;52.198;9.902;2023-01-24T03:47:26;102993.66;;;1.16;100.00
17525;BME280;40431;52.198;9.902;2023-01-24T03:49:52;102995.56;;;1.24;100.00
17525;BME280;40431;52.198;9.902;2023-01-24T03:52:36;102992.81;;;1.19;100.00
17525;BME280;40431;52.198;9.902;2023-01-24T03:55:03;102990.13;;;1.17;100.00
17525;BME280;40431;52.198;9.902;2023-01-24T03:57:29;102984.78;;;1.19;100.00
17525;BME280;40431;52.198;9.902;2023-01-24T03:59:56;102982.06;;;1.16;100.00
17525;BME280;40431;52.198;9.902;2023-01-24T04:02:22;102991.84;;;1.15;100.00
17525;BME280;40431;52.198;9.902;2023-01-24T04:04:50;102987.47;;;1.19;100.00
17525;BME280;40431;52.198;9.902;2023-01-24T04:07:34;102983.81;;;1.15;100.00
17525;BME280;40431;52.198;9.902;2023-01-24T04:10:00;102989.16;;;1.14;100.00
17525;BME280;40431;52.198;9.902;2023-01-24T04:12:26;102990.06;;;1.14;100.00
17525;BME280;40431;52.198;9.902;2023-01-24T04:14:53;102989.16;;;1.15;100.00
17525;BME280;40431;52.198;9.902;2023-01-24T04:17:19;102990.13;;;1.17;100.00
17525;BME280;40431;52.198;9.902;2023-01-24T04:19:46;103000.75;;;1.14;100.00
17525;BME280;40431;52.198;9.902;2023-01-24T04:22:14;102993.59;;;1.13;100.00
17525;BME280;40431;52.198;9.902;2023-01-24T04:24:40;102998.97;;;1.13;100.00
17525;BME280;40431;52.198;9.902;2023-01-24T04:27:07;102993.59;;;1.13;100.00
17525;BME280;40431;52.198;9.902;2023-01-24T04:29:33;102995.47;;;1.17;100.00
17525;BME280;40431;52.198;9.902;2023-01-24T04:31:59;102994.50;;;1.15;100.00
17525;BME280;40431;52.198;9.902;2023-01-24T04:34:26;102997.19;;;1.15;100.00
17525;BME280;40431;52.198;9.902;2023-01-24T04:36:52;102990.06;;;1.14;100.00
17525;BME280;40431;52.198;9.902;2023-01-24T04:39:20;102996.34;;;1.18;100.00
17525;BME280;40431;52.198;9.902;2023-01-24T04:41:46;102984.78;;;1.17;100.00
17525;BME280;40431;52.198;9.902;2023-01-24T04:44:12;102974.78;;;1.07;100.00
17525;BME280;40431;52.198;9.902;2023-01-24T04:46:39;102990.06;;;1.14;100.00
17525;BME280;40431;52.198;9.902;2023-01-24T04:49:05;102988.31;;;1.16;100.00
17525;BME280;40431;52.198;9.902;2023-01-24T04:51:31;102988.31;;;1.16;100.00
17525;BME280;40431;52.198;9.902;2023-01-24T04:53:58;102984.72;;;1.14;100.00
17525;BME280;40431;52.198;9.902;2023-01-24T04:56:25;102986.47;;;1.12;100.00
17525;BME280;40431;52.198;9.902;2023-01-24T04:58:52;102973.81;;;1.02;100.00
17525;BME280;40431;52.198;9.902;2023-01-24T05:01:18;102980.94;;;1.03;100.00
17525;BME280;40431;52.198;9.902;2023-01-24T05:03:44;102987.25;;;1.07;100.00
17525;BME280;40431;52.198;9.902;2023-01-24T05:06:11;102984.56;;;1.05;100.00
17525;BME280;40431;52.198;9.902;2023-01-24T05:08:37;102990.00;;;1.11;100.00
17525;BME280;40431;52.198;9.902;2023-01-24T05:11:04;102994.44;;;1.11;100.00
17525;BME280;40431;52.198;9.902;2023-01-24T05:13:31;102991.75;;;1.09;100.00
17525;BME280;40431;52.198;9.902;2023-01-24T05:15:58;102998.00;;;1.10;100.00
17525;BME280;40431;52.198;9.902;2023-01-24T05:18:24;102997.13;;;1.11;100.00
17525;BME280;40431;52.198;9.902;2023-01-24T05:20:50;102995.31;;;1.08;100.00
17525;BME280;40431;52.198;9.902;2023-01-24T05:23:17;103002.44;;;1.09;100.00
17525;BME280;40431;52.198;9.902;2023-01-24T05:25:43;103005.94;;;1.05;100.00
17525;BME280;40431;52.198;9.902;2023-01-24T05:28:10;103001.47;;;1.06;100.00
17525;BME280;40431;52.198;9.902;2023-01-24T05:30:37;103004.22;;;1.10;100.00
17525;BME280;40431;52.198;9.902;2023-01-24T05:33:04;103005.97;;;1.07;100.00
17525;BME280;40431;52.198;9.902;2023-01-24T05:35:30;103004.19;;;1.07;100.00
17525;BME280;40431;52.198;9.902;2023-01-24T05:37:56;103010.38;;;1.05;100.00
17525;BME280;40431;52.198;9.902;2023-01-24T05:40:23;103004.19;;;1.07;100.00
17525;BME280;40431;52.198;9.902;2023-01-24T05:42:49;103012.34;;;1.16;100.00
17525;BME280;40431;52.198;9.902;2023-01-24T05:45:16;103000.81;;;1.17;100.00
17525;BME280;40431;52.198;9.902;2023-01-24T05:47:43;102999.94;;;1.19;100.00
17525;BME280;40431;52.198;9.902;2023-01-24T05:50:10;103004.34;;;1.16;100.00
17525;BME280;40431;52.198;9.902;2023-01-24T05:52:36;103005.25;;;1.17;100.00
17525;BME280;40431;52.198;9.902;2023-01-24T05:55:04;103005.16;;;1.12;100.00
17525;BME280;40431;52.198;9.902;2023-01-24T05:57:30;103004.22;;;1.10;100.00
17525;BME280;40431;52.198;9.902;2023-01-24T05:59:57;103007.84;;;1.12;100.00
17525;BME280;40431;52.198;9.902;2023-01-24T06:02:23;103008.78;;;1.14;100.00
17525;BME280;40431;52.198;9.902;2023-01-24T06:04:51;103007.84;;;1.12;100.00
17525;BME280;40431;52.198;9.902;2023-01-24T06:07:17;103014.03;;;1.11;100.00
17525;BME280;40431;52.198;9.902;2023-01-24T06:09:44;103013.19;;;1.14;100.00
17525;BME280;40431;52.198;9.902;2023-01-24T06:12:10;103012.22;;;1.09;100.00
17525;BME280;40431;52.198;9.902;2023-01-24T06:14:37;103015.84;;;1.12;100.00
17525;BME280;40431;52.198;9.902;2023-01-24T06:17:03;103024.75;;;1.11;100.00
17525;BME280;40431;52.198;9.902;2023-01-24T06:19:30;103028.38;;;1.15;100.00
17525;BME280;40431;52.198;9.902;2023-01-24T06:22:02;103036.25;;;1.07;100.00
17525;BME280;40431;52.198;9.902;2023-01-24T06:24:32;103045.19;;;1.09;100.00
17525;BME280;40431;52.198;9.902;2023-01-24T06:26:59;103032.72;;;1.08;100.00
17525;BME280;40431;52.198;9.902;2023-01-24T06:29:26;103032.75;;;1.11;100.00
17525;BME280;40431;52.198;9.902;2023-01-24T06:32:02;103040.56;;;0.99;100.00
17525;BME280;40431;52.198;9.902;2023-01-24T06:34:53;103046.72;;;0.95;100.00
17525;BME280;40431;52.198;9.902;2023-01-24T06:37:29;103047.56;;;0.92;100.00
17525;BME280;40431;52.198;9.902;2023-01-24T06:39:59;103051.22;;;0.97;100.00
17525;BME280;40431;52.198;9.902;2023-01-24T06:42:25;103044.94;;;0.97;100.00
17525;BME280;40431;52.198;9.902;2023-01-24T06:44:52;103047.69;;;1.00;100.00
17525;BME280;40431;52.198;9.902;2023-01-24T06:47:19;103060.22;;;1.03;100.00
17525;BME280;40431;52.198;9.902;2023-01-24T06:49:45;103053.97;;;1.02;100.00
17525;BME280;40431;52.198;9.902;2023-01-24T06:52:12;103054.06;;;1.07;100.00
17525;BME280;40431;52.198;9.902;2023-01-24T06:54:41;103048.56;;;0.99;100.00
17525;BME280;40431;52.198;9.902;2023-01-24T06:57:07;103053.09;;;1.03;100.00
17525;BME280;40431;52.198;9.902;2023-01-24T06:59:34;103062.06;;;1.07;100.00
17525;BME280;40431;52.198;9.902;2023-01-24T07:02:00;103052.22;;;1.04;100.00
17525;BME280;40431;52.198;9.902;2023-01-24T07:04:27;103060.13;;;0.99;100.00
17525;BME280;40431;52.198;9.902;2023-01-24T07:06:53;103048.63;;;1.04;100.00
17525;BME280;40431;52.198;9.902;2023-01-24T07:09:20;103057.56;;;1.04;100.00
17525;BME280;40431;52.198;9.902;2023-01-24T07:11:47;103055.72;;;1.00;100.00
17525;BME280;40431;52.198;9.902;2023-01-24T07:14:17;103066.50;;;1.06;100.00
17525;BME280;40431;52.198;9.902;2023-01-24T07:16:44;103072.63;;;1.00;100.00
17525;BME280;40431;52.198;9.902;2023-01-24T07:19:14;103070.91;;;1.03;100.00
17525;BME280;40431;52.198;9.902;2023-01-24T07:21:42;103072.69;;;1.04;100.00
17525;BME280;40431;52.198;9.902;2023-01-24T07:24:13;103078.94;;;1.04;100.00
17525;BME280;40431;52.198;9.902;2023-01-24T07:26:40;103074.47;;;1.03;100.00
17525;BME280;40431;52.198;9.902;2023-01-24T07:29:08;103072.69;;;1.04;100.00
17525;BME280;40431;52.198;9.902;2023-01-24T07:31:34;103083.44;;;1.07;100.00
17525;BME280;40431;52.198;9.902;2023-01-24T07:34:01;103082.34;;;0.97;100.00
17525;BME280;40431;52.198;9.902;2023-01-24T07:36:27;103086.16;;;1.08;100.00
17525;BME280;40431;52.198;9.902;2023-01-24T07:38:54;103078.03;;;1.04;100.00
17525;BME280;40431;52.198;9.902;2023-01-24T07:41:21;103079.84;;;1.05;100.00
17525;BME280;40431;52.198;9.902;2023-01-24T07:43:47;103086.03;;;1.02;100.00
17525;BME280;40431;52.198;9.902;2023-01-24T07:46:15;103082.44;;;1.00;100.00
17525;BME280;40431;52.198;9.902;2023-01-24T07:48:41;103073.53;;;1.01;100.00
17525;BME280;40431;52.198;9.902;2023-01-24T07:51:08;103076.19;;;0.99;100.00
17525;BME280;40431;52.198;9.902;2023-01-24T07:53:35;103084.16;;;0.98;100.00
17525;BME280;40431;52.198;9.902;2023-01-24T07:56:02;103084.16;;;0.98;100.00
17525;BME280;40431;52.198;9.902;2023-01-24T07:58:29;103084.13;;;0.95;100.00
17525;BME280;40431;52.198;9.902;2023-01-24T08:00:56;103093.13;;;1.00;100.00
17525;BME280;40431;52.198;9.902;2023-01-24T08:03:24;103085.16;;;1.03;100.00
17525;BME280;40431;52.198;9.902;2023-01-24T08:05:50;103094.81;;;0.95;100.00
17525;BME280;40431;52.198;9.902;2023-01-24T08:08:17;103084.94;;;0.92;100.00
17525;BME280;40431;52.198;9.902;2023-01-24T08:10:43;103091.28;;;0.96;100.00
17525;BME280;40431;52.198;9.902;2023-01-24T08:13:10;103105.53;;;0.98;100.00
17525;BME280;40431;52.198;9.902;2023-01-24T08:15:36;103100.09;;;0.92;100.00
17525;BME280;40431;52.198;9.902;2023-01-24T08:18:03;103097.47;;;0.95;100.00
17525;BME280;40431;52.198;9.902;2023-01-24T08:20:30;103100.97;;;0.92;100.00
17525;BME280;40431;52.198;9.902;2023-01-24T08:22:57;103096.56;;;0.94;100.00
17525;BME280;40431;52.198;9.902;2023-01-24T08:25:24;103098.38;;;0.97;100.00
17525;BME280;40431;52.198;9.902;2023-01-24T08:27:51;103100.16;;;0.95;100.00
17525;BME280;40431;52.198;9.902;2023-01-24T08:30:18;103098.38;;;0.97;100.00
17525;BME280;40431;52.198;9.902;2023-01-24T08:32:44;103113.66;;;1.03;100.00
17525;BME280;40431;52.198;9.902;2023-01-24T08:35:11;103114.41;;;0.97;100.00
17525;BME280;40431;52.198;9.902;2023-01-24T08:37:39;103107.34;;;0.99;100.00
17525;BME280;40431;52.198;9.902;2023-01-24T08:40:07;103109.22;;;1.05;100.00
17525;BME280;40431;52.198;9.902;2023-01-24T08:42:35;103106.59;;;1.06;100.00
17525;BME280;40431;52.198;9.902;2023-01-24T08:45:02;103110.09;;;1.04;100.00
17525;BME280;40431;52.198;9.902;2023-01-24T08:47:28;103107.41;;;1.02;100.00
17525;BME280;40431;52.198;9.902;2023-01-24T08:49:54;103111.84;;;1.02;100.00
17525;BME280;40431;52.198;9.902;2023-01-24T08:52:21;103114.69;;;1.09;100.00
17525;BME280;40431;52.198;9.902;2023-01-24T08:54:49;103106.47;;;1.00;100.00
17525;BME280;40431;52.198;9.902;2023-01-24T08:57:15;103117.28;;;1.06;100.00
17525;BME280;40431;52.198;9.902;2023-01-24T08:59:41;103119.06;;;1.06;100.00
17525;BME280;40431;52.198;9.902;2023-01-24T09:02:14;103118.25;;;1.11;100.00
17525;BME280;40431;52.198;9.902;2023-01-24T09:04:41;103106.69;;;1.11;100.00
17525;BME280;40431;52.198;9.902;2023-01-24T09:07:08;103119.19;;;1.12;100.00
17525;BME280;40431;52.198;9.902;2023-01-24T09:09:34;103123.75;;;1.19;100.00
17525;BME280;40431;52.198;9.902;2023-01-24T09:12:03;103117.41;;;1.12;100.00
17525;BME280;40431;52.198;9.902;2023-01-24T09:14:29;103127.16;;;1.10;100.00
17525;BME280;40431;52.198;9.902;2023-01-24T09:16:55;103121.84;;;1.12;100.00
17525;BME280;40431;52.198;9.902;2023-01-24T09:19:22;103127.22;;;1.13;100.00
17525;BME280;40431;52.198;9.902;2023-01-24T09:21:51;103125.47;;;1.15;100.00
17525;BME280;40431;52.198;9.902;2023-01-24T09:24:21;103131.78;;;1.19;100.00
17525;BME280;40431;52.198;9.902;2023-01-24T09:26:48;103129.13;;;1.21;100.00
17525;BME280;40431;52.198;9.902;2023-01-24T09:29:16;103123.88;;;1.24;100.00
17525;BME280;40431;52.198;9.902;2023-01-24T09:31:42;103129.13;;;1.21;100.00
17525;BME280;40431;52.198;9.902;2023-01-24T09:34:09;103131.91;;;1.25;100.00
17525;BME280;40431;52.198;9.902;2023-01-24T09:36:35;103130.16;;;1.27;100.00
17525;BME280;40431;52.198;9.902;2023-01-24T09:39:02;103137.34;;;1.30;100.00
17525;BME280;40431;52.198;9.902;2023-01-24T09:41:38;103117.66;;;1.26;100.00
17525;BME280;40431;52.198;9.902;2023-01-24T09:44:14;103123.06;;;1.29;100.00
17525;BME280;40431;52.198;9.902;2023-01-24T09:46:46;103130.13;;;1.26;100.00
17525;BME280;40431;52.198;9.902;2023-01-24T09:49:22;103133.63;;;1.23;100.00
17525;BME280;40431;52.198;9.902;2023-01-24T09:51:53;103132.75;;;1.23;100.00
17525;BME280;40431;52.198;9.902;2023-01-24T09:54:29;103132.84;;;1.29;100.00
17525;BME280;40431;52.198;9.902;2023-01-24T09:56:56;103128.28;;;1.23;100.00
17525;BME280;40431;52.198;9.902;2023-01-24T09:59:28;103137.25;;;1.25;100.00
17525;BME280;40431;52.198;9.902;2023-01-24T10:01:59;103133.63;;;1.23;100.00
17525;BME280;40431;52.198;9.902;2023-01-24T10:04:30;103130.13;;;1.26;100.00
17525;BME280;40431;52.198;9.902;2023-01-24T10:07:25;103135.59;;;1.32;100.00
17525;BME280;40431;52.198;9.902;2023-01-24T10:10:03;103132.16;;;1.39;100.00
17525;BME280;40431;52.198;9.902;2023-01-24T10:12:46;103138.50;;;1.44;100.00
17525;BME280;40431;52.198;9.902;2023-01-24T10:15:24;103130.50;;;1.46;100.00
17525;BME280;40431;52.198;9.902;2023-01-24T10:21:00;103126.13;;;1.49;100.00
17525;BME280;40431;52.198;9.902;2023-01-24T10:23:31;103125.94;;;1.40;100.00
17525;BME280;40431;52.198;9.902;2023-01-24T10:26:03;103122.44;;;1.43;100.00
17525;BME280;40431;52.198;9.902;2023-01-24T10:28:34;103118.91;;;1.45;100.00
17525;BME280;40431;52.198;9.902;2023-01-24T10:31:05;103126.00;;;1.45;100.00
17525;BME280;40431;52.198;9.902;2023-01-24T10:33:37;103117.94;;;1.42;100.00
17525;BME280;40431;52.198;9.902;2023-01-24T10:36:09;103117.22;;;1.50;100.00
17525;BME280;40431;52.198;9.902;2023-01-24T10:38:37;103120.81;;;1.53;100.00
17525;BME280;40431;52.198;9.902;2023-01-24T10:41:16;103110.88;;;1.44;100.00
17525;BME280;40431;52.198;9.902;2023-01-24T10:43:45;103106.41;;;1.44;100.00
17525;BME280;40431;52.198;9.902;2023-01-24T10:46:29;103108.25;;;1.48;100.00
17525;BME280;40431;52.198;9.902;2023-01-24T10:49:00;103096.59;;;1.45;100.00
17525;BME280;40431;52.198;9.902;2023-01-24T10:51:28;103101.19;;;1.50;100.00
17525;BME280;40431;52.198;9.902;2023-01-24T10:53:55;103096.72;;;1.51;100.00
17525;BME280;40431;52.198;9.902;2023-01-24T10:56:26;103090.41;;;1.47;100.00
17525;BME280;40431;52.198;9.902;2023-01-24T10:58:56;103093.25;;;1.57;100.00
17525;BME280;40431;52.198;9.902;2023-01-24T11:01:32;103099.56;;;1.62;100.00
17525;BME280;40431;52.198;9.902;2023-01-24T11:04:12;103098.66;;;1.60;100.00
17525;BME280;40431;52.198;9.902;2023-01-24T11:06:40;103094.16;;;1.57;100.00
17525;BME280;40431;52.198;9.902;2023-01-24T11:09:10;103100.53;;;1.65;100.00
17525;BME280;40431;52.198;9.902;2023-01-24T11:11:41;103096.81;;;1.56;100.00
17525;BME280;40431;52.198;9.902;2023-01-24T11:14:12;103086.88;;;1.48;100.00
17525;BME280;40431;52.198;9.902;2023-01-24T11:16:42;103086.81;;;1.44;100.00
17525;BME280;40431;52.198;9.902;2023-01-24T11:19:21;103078.72;;;1.41;100.00
17525;BME280;40431;52.198;9.902;2023-01-24T11:21:50;103085.03;;;1.44;100.00
17525;BME280;40431;52.198;9.902;2023-01-24T11:24:17;103085.06;;;1.47;100.00
17525;BME280;40431;52.198;9.902;2023-01-24T11:26:53;103092.25;;;1.52;100.00
17525;BME280;40431;52.198;9.902;2023-01-24T11:29:21;103087.03;;;1.58;100.00
17525;BME280;40431;52.198;9.902;2023-01-24T11:31:50;103086.19;;;1.60;100.00
17525;BME280;40431;52.198;9.902;2023-01-24T11:34:50;103094.22;;;1.62;100.00
17525;BME280;40431;52.198;9.902;2023-01-24T11:40:19;103089.66;;;1.55;100.00
17525;BME280;40431;52.198;9.902;2023-01-24T11:42:56;103085.28;;;1.60;100.00
17525;BME280;40431;52.198;9.902;2023-01-24T11:45:32;103093.34;;;1.61;100.00
17525;BME280;40431;52.198;9.902;2023-01-24T11:48:08;103093.50;;;1.71;100.00
17525;BME280;40431;52.198;9.902;2023-01-24T11:50:46;103074.66;;;1.64;100.00
17525;BME280;40431;52.198;9.902;2023-01-24T11:53:31;103083.69;;;1.71;100.00
17525;BME280;40431;52.198;9.902;2023-01-24T11:56:07;103079.28;;;1.75;100.00
17525;BME280;40431;52.198;9.902;2023-01-24T11:58:52;103068.50;;;1.70;100.00
17525;BME280;40431;52.198;9.902;2023-01-24T12:01:32;103063.97;;;1.66;100.00
17525;BME280;40431;52.198;9.902;2023-01-24T12:04:35;103062.25;;;1.68;100.00
17525;BME280;40431;52.198;9.902;2023-01-24T12:07:14;103058.72;;;1.69;100.00
17525;BME280;40431;52.198;9.902;2023-01-24T12:09:48;103065.75;;;1.64;100.00
17525;BME280;40431;52.198;9.902;2023-01-24T12:12:21;103056.78;;;1.62;100.00
17525;BME280;40431;52.198;9.902;2023-01-24T12:14:59;103062.22;;;1.65;100.00
17525;BME280;40431;52.198;9.902;2023-01-24T12:17:42;103061.38;;;1.69;100.00
17525;BME280;40431;52.198;9.902;2023-01-24T12:20:30;103051.66;;;1.74;100.00
17525;BME280;40431;52.198;9.902;2023-01-24T12:23:09;103048.91;;;1.70;100.00
17525;BME280;40431;52.198;9.902;2023-01-24T12:25:38;103043.63;;;1.74;100.00
17525;BME280;40431;52.198;9.902;2023-01-24T12:28:12;103044.50;;;1.73;100.00
17525;BME280;40431;52.198;9.902;2023-01-24T12:30:43;103036.47;;;1.73;100.00
17525;BME280;40431;52.198;9.902;2023-01-24T12:33:17;103030.16;;;1.68;100.00
17525;BME280;40431;52.198;9.902;2023-01-24T12:35:50;103032.94;;;1.76;100.00
17525;BME280;40431;52.198;9.902;2023-01-24T12:38:25;103023.03;;;1.70;100.00
17525;BME280;40431;52.198;9.902;2023-01-24T12:41:00;103015.94;;;1.72;100.00
17525;BME280;40431;52.198;9.902;2023-01-24T12:43:31;103014.09;;;1.66;100.00
17525;BME280;40431;52.198;9.902;2023-01-24T12:46:09;103013.22;;;1.69;100.00
17525;BME280;40431;52.198;9.902;2023-01-24T12:48:40;103009.59;;;1.65;100.00
17525;BME280;40431;52.198;9.902;2023-01-24T12:51:15;103020.44;;;1.73;100.00
17525;BME280;40431;52.198;9.902;2023-01-24T12:53:54;103021.25;;;1.67;100.00
17525;BME280;40431;52.198;9.902;2023-01-24T12:56:23;103008.66;;;1.62;100.00
17525;BME280;40431;52.198;9.902;2023-01-24T12:58:52;103012.25;;;1.64;100.00
17525;BME280;40431;52.198;9.902;2023-01-24T13:01:56;103007.72;;;1.58;100.00
17525;BME280;40431;52.198;9.902;2023-01-24T13:04:35;102999.66;;;1.57;100.00
17525;BME280;40431;52.198;9.902;2023-01-24T13:07:09;103006.91;;;1.64;100.00
17525;BME280;40431;52.198;9.902;2023-01-24T13:09:44;102990.78;;;1.61;100.00
17525;BME280;40431;52.198;9.902;2023-01-24T13:12:16;102990.75;;;1.58;100.00
17525;BME280;40431;52.198;9.902;2023-01-24T13:14:46;102990.72;;;1.55;100.00